Government of Jersey

Home Log in

METAR EGJJ 232350Z AUTO 33004KT 280V020 9999 OVC034/// 12/08 Q1019

METAR EGJB 232350Z 31003KT 9999 BKN034 11/07 Q1019

METAR LFRD 240000Z AUTO 33006KT 9999 BKN032 11/07 Q1019 TEMPO 3000 BR

METAR LFRC 240000Z AUTO 27003KT 9999 BKN013 BKN033 08/08 Q1018

METAR LFRT 240000Z AUTO 25005KT 9999 OVC034 10/08 Q1019